»·PEaware :: N137AD KSMX-KBFL

N137AD :: KSMX-KBFL

FLIGHT INFORMATION

Flight Status: Arrived
Operator: Privately registered:
United States
More flights under this callsign
Pilot: Mike Z. (25595)
Aircraft: CESSNA 172 SKYHAWK
(C172)
More flights by this aircraft type
Origin: KSMX Santa Maria Pub/Capt Hancock
United States
Destination: KBFL Meadows
United States
More flights between these airports :: More routes between these airports
Route: KSMX FLW KBFL
File this flight plan on PilotEdge
Remarks: CAT-05
Altitude:
(Current/Filed)
9,500ft
Speed:
(Current/Filed)
110kts
Departed: 27-Jul-19 04:56 PM
Arrived: 27-Jul-19 05:32 PM
Distance/Time
Traveled:
76nm/0:36
Distance/Time
To Go:
Arrived

Flight Plot

Page will automatically refresh every two minutes.


Map Options




Map Legend


Flown Route
Filed Route
Departure Airport
Arrival Airport
Navaid (VOR, NDB)
Fix

Horizontal Profiles

Position Reports

Time Latitude Longitude Heading Altitude Ground
Speed
27-Jul-19 16:46 34.896952 -120.446158 273 265ft 0kts
27-Jul-19 16:47 34.896952 -120.446158 273 265ft 0kts
27-Jul-19 16:48 34.896952 -120.446158 273 265ft 0kts
27-Jul-19 16:49 34.896952 -120.446158 273 265ft 0kts
27-Jul-19 16:51 34.895615 -120.445452 133 265ft 20kts
27-Jul-19 16:52 34.893494 -120.445105 200 265ft 0kts
27-Jul-19 16:53 34.893493 -120.445105 200 265ft 0kts
27-Jul-19 16:54 34.893494 -120.445105 200 265ft 0kts
27-Jul-19 16:55 34.893494 -120.445105 200 265ft 0kts
27-Jul-19 16:56 34.894292 -120.447630 315 265ft 54kts
27-Jul-19 16:57 34.908408 -120.447087 60 845ft 87kts
27-Jul-19 16:58 34.918352 -120.455733 289 1561ft 71kts
27-Jul-19 16:59 34.931499 -120.446342 85 2211ft 84kts
27-Jul-19 17:00 34.930895 -120.417836 86 2904ft 83kts
27-Jul-19 17:01 34.931102 -120.389508 82 3519ft 88kts
27-Jul-19 17:02 34.933609 -120.357110 78 4104ft 96kts
27-Jul-19 17:03 34.937783 -120.326058 74 4788ft 87kts
27-Jul-19 17:04 34.946510 -120.300687 57 5389ft 81kts
27-Jul-19 17:05 34.960253 -120.277767 55 5893ft 87kts
27-Jul-19 17:06 34.969735 -120.249160 64 6396ft 92kts
27-Jul-19 17:07 34.978669 -120.221265 64 6970ft 82kts
27-Jul-19 17:08 34.987523 -120.193888 64 7383ft 90kts
27-Jul-19 17:09 34.997916 -120.161934 66 7530ft 115kts
27-Jul-19 17:10 35.018285 -120.098626 66 7515ft 114kts
27-Jul-19 17:11 35.063019 -119.960286 66 7501ft 113kts
27-Jul-19 17:11 35.094591 -119.862122 66 7502ft 113kts
27-Jul-19 17:13 35.132775 -119.755449 64 7502ft 113kts
27-Jul-19 17:13 35.193537 -119.582909 63 7457ft 115kts
27-Jul-19 17:14 35.206276 -119.546796 63 7449ft 114kts
27-Jul-19 17:15 35.238917 -119.454824 62 7442ft 114kts
27-Jul-19 17:16 35.251791 -119.419009 63 7442ft 114kts
27-Jul-19 17:17 35.264503 -119.383195 63 7442ft 114kts
27-Jul-19 17:18 35.276967 -119.347814 64 7202ft 121kts
27-Jul-19 17:19 35.289333 -119.311737 64 6736ft 124kts
27-Jul-19 17:20 35.302919 -119.272450 64 6209ft 127kts
27-Jul-19 17:21 35.321025 -119.232987 54 5209ft 136kts
27-Jul-19 17:22 35.340727 -119.194155 54 4197ft 131kts
27-Jul-19 17:23 35.359952 -119.157608 51 3186ft 125kts
27-Jul-19 17:24 35.379065 -119.122880 51 2368ft 108kts
27-Jul-19 17:25 35.391937 -119.097777 50 2383ft 96kts
27-Jul-19 17:26 35.403095 -119.063441 101 2074ft 114kts
27-Jul-19 17:27 35.395384 -119.029935 51 1402ft 78kts
27-Jul-19 17:28 35.410192 -119.027073 311 1167ft 59kts
27-Jul-19 17:29 35.421465 -119.041235 311 854ft 60kts
27-Jul-19 17:30 35.433147 -119.055417 314 497ft 55kts
27-Jul-19 17:31 35.436280 -119.057739 65 492ft 0kts
27-Jul-19 17:32 35.436654 -119.057441 341 494ft 11kts
27-Jul-19 17:33 35.434482 -119.054750 135 492ft 22kts
27-Jul-19 17:34 35.433372 -119.051338 49 500ft 8kts
27-Jul-19 17:35 35.433802 -119.050869 4 502ft 0kts

Navigation Log

Ident Type
Flight plan parsing failed, navigation log unavailable